JKK55FW LICJ-LEPA
Flight info
| Callsign | JKK55FW |
|---|---|
| Flight time | 1h 27m |
| Altitude | 32000 |
| Route | KAPIL DCT ADAMI DCT IBREP DCT XATOS DCT SUXER DCT RIPAL DCT MORSS |
| Aircraft | MD83/M-SDFGIRWY/S |
Departure
| Time | 2026-05-04 12:25 |
|---|---|
| Airport | Falcone–Borsellino Airport (LICJ) |
Arrival
| Time | 2026-05-04 13:53 |
|---|---|
| Airport | Palma de Mallorca Airport (LEPA) |
| Time | Latitude | Longitude | Altitude | Speed | Heading |
|---|---|---|---|---|---|
| 2026-05-04 11:55 | 38.18591 | 13.11011 | 66 ft | 0 kts | 67° |
| 2026-05-04 12:20 | 38.18589 | 13.11005 | 66 ft | 1 kts | 67° |
| 2026-05-04 12:20 | 38.18583 | 13.10987 | 58 ft | 8 kts | 72° |
| 2026-05-04 12:20 | 38.18579 | 13.10956 | 59 ft | 5 kts | 109° |
| 2026-05-04 12:20 | 38.18574 | 13.10948 | 58 ft | 5 kts | 158° |
| 2026-05-04 12:21 | 38.18519 | 13.10973 | 66 ft | 9 kts | 182° |
| 2026-05-04 12:21 | 38.18454 | 13.10945 | 59 ft | 10 kts | 200° |
| 2026-05-04 12:21 | 38.18391 | 13.10885 | 63 ft | 15 kts | 237° |
| 2026-05-04 12:21 | 38.18333 | 13.10719 | 59 ft | 26 kts | 246° |
| 2026-05-04 12:22 | 38.18254 | 13.10484 | 64 ft | 30 kts | 247° |
| 2026-05-04 12:22 | 38.18172 | 13.10241 | 60 ft | 30 kts | 247° |
| 2026-05-04 12:22 | 38.18090 | 13.09997 | 62 ft | 30 kts | 247° |
| 2026-05-04 12:22 | 38.18008 | 13.09753 | 62 ft | 30 kts | 247° |
| 2026-05-04 12:23 | 38.17926 | 13.09509 | 65 ft | 30 kts | 247° |
| 2026-05-04 12:23 | 38.17849 | 13.09279 | 72 ft | 27 kts | 247° |
| 2026-05-04 12:23 | 38.17772 | 13.09049 | 60 ft | 30 kts | 247° |
| 2026-05-04 12:23 | 38.17646 | 13.08851 | 62 ft | 27 kts | 211° |
| 2026-05-04 12:24 | 38.17526 | 13.08784 | 65 ft | 13 kts | 157° |
| 2026-05-04 12:24 | 38.17516 | 13.08901 | 66 ft | 21 kts | 68° |
| 2026-05-04 12:24 | 38.17623 | 13.09218 | 64 ft | 68 kts | 66° |
| 2026-05-04 12:24 | 38.17893 | 13.10023 | 65 ft | 130 kts | 66° |
| 2026-05-04 12:25 | 38.18298 | 13.11240 | 393 ft | 156 kts | 68° |
| 2026-05-04 12:25 | 38.18675 | 13.12548 | 1170 ft | 162 kts | 72° |
| 2026-05-04 12:25 | 38.19068 | 13.13970 | 1769 ft | 175 kts | 72° |
| 2026-05-04 12:25 | 38.19421 | 13.15399 | 2421 ft | 180 kts | 73° |
| 2026-05-04 12:26 | 38.19846 | 13.16959 | 2918 ft | 198 kts | 66° |
| 2026-05-04 12:26 | 38.20494 | 13.18599 | 3401 ft | 219 kts | 56° |
| 2026-05-04 12:26 | 38.21590 | 13.20070 | 3808 ft | 243 kts | 35° |
| 2026-05-04 12:26 | 38.23146 | 13.21106 | 4290 ft | 262 kts | 21° |
| 2026-05-04 12:27 | 38.24911 | 13.21951 | 4867 ft | 277 kts | 19° |
| 2026-05-04 12:27 | 38.26722 | 13.22787 | 5653 ft | 280 kts | 19° |
| 2026-05-04 12:27 | 38.28566 | 13.23643 | 6520 ft | 283 kts | 19° |
| 2026-05-04 12:27 | 38.30430 | 13.24525 | 7310 ft | 285 kts | 19° |
| 2026-05-04 12:28 | 38.32292 | 13.25440 | 8068 ft | 288 kts | 20° |
| 2026-05-04 12:28 | 38.34142 | 13.26385 | 8825 ft | 290 kts | 21° |
| 2026-05-04 12:28 | 38.36014 | 13.27363 | 9640 ft | 291 kts | 22° |
| 2026-05-04 12:28 | 38.37881 | 13.28338 | 10308 ft | 296 kts | 18° |
| 2026-05-04 12:29 | 38.39990 | 13.28719 | 10443 ft | 317 kts | 351° |
| 2026-05-04 12:29 | 38.42120 | 13.27807 | 10603 ft | 334 kts | 326° |
| 2026-05-04 12:29 | 38.43827 | 13.25729 | 10820 ft | 348 kts | 302° |
| 2026-05-04 12:29 | 38.44756 | 13.22889 | 11257 ft | 355 kts | 279° |
| 2026-05-04 12:30 | 38.44777 | 13.19756 | 12009 ft | 352 kts | 263° |
| 2026-05-04 12:30 | 38.44507 | 13.16644 | 12689 ft | 355 kts | 266° |
| 2026-05-04 12:30 | 38.44443 | 13.13487 | 13382 ft | 356 kts | 272° |
| 2026-05-04 12:30 | 38.44600 | 13.10327 | 14053 ft | 358 kts | 276° |
| 2026-05-04 12:31 | 38.44873 | 13.07157 | 14643 ft | 361 kts | 274° |
| 2026-05-04 12:31 | 38.44770 | 13.03937 | 15248 ft | 364 kts | 265° |
| 2026-05-04 12:31 | 38.44455 | 13.00764 | 15856 ft | 366 kts | 263° |
| 2026-05-04 12:31 | 38.44095 | 12.97520 | 16434 ft | 370 kts | 263° |
| 2026-05-04 12:32 | 38.43734 | 12.94258 | 17033 ft | 372 kts | 264° |
| 2026-05-04 12:32 | 38.43036 | 12.87660 | 18204 ft | 378 kts | 264° |
| 2026-05-04 12:32 | 38.42703 | 12.84317 | 18754 ft | 380 kts | 265° |
| 2026-05-04 12:33 | 38.42385 | 12.80999 | 19285 ft | 382 kts | 265° |
| 2026-05-04 12:33 | 38.42066 | 12.77623 | 19848 ft | 383 kts | 265° |
| 2026-05-04 12:33 | 38.41747 | 12.74216 | 20367 ft | 386 kts | 265° |
| 2026-05-04 12:33 | 38.41429 | 12.70850 | 20884 ft | 387 kts | 265° |
| 2026-05-04 12:34 | 38.41103 | 12.67421 | 21389 ft | 390 kts | 265° |
| 2026-05-04 12:34 | 38.40773 | 12.63982 | 21903 ft | 392 kts | 265° |
| 2026-05-04 12:34 | 38.40439 | 12.60512 | 22428 ft | 394 kts | 265° |
| 2026-05-04 12:34 | 38.40104 | 12.57032 | 22968 ft | 396 kts | 265° |
| 2026-05-04 12:35 | 38.39769 | 12.53574 | 23508 ft | 398 kts | 265° |
| 2026-05-04 12:35 | 38.39412 | 12.50057 | 23948 ft | 401 kts | 265° |
| 2026-05-04 12:35 | 38.39033 | 12.46521 | 24360 ft | 403 kts | 265° |
| 2026-05-04 12:35 | 38.38650 | 12.42956 | 24805 ft | 404 kts | 265° |
| 2026-05-04 12:36 | 38.38283 | 12.39437 | 25223 ft | 406 kts | 265° |
| 2026-05-04 12:36 | 38.37919 | 12.35847 | 25624 ft | 408 kts | 265° |
| 2026-05-04 12:36 | 38.37559 | 12.32242 | 26035 ft | 410 kts | 265° |
| 2026-05-04 12:36 | 38.37200 | 12.28617 | 26473 ft | 411 kts | 265° |
| 2026-05-04 12:37 | 38.36844 | 12.25022 | 26855 ft | 414 kts | 265° |
| 2026-05-04 12:37 | 38.36483 | 12.21358 | 27232 ft | 416 kts | 265° |
| 2026-05-04 12:37 | 38.36120 | 12.17689 | 27746 ft | 415 kts | 265° |
| 2026-05-04 12:37 | 38.35804 | 12.14102 | 28376 ft | 409 kts | 271° |
| 2026-05-04 12:38 | 38.36146 | 12.10557 | 28965 ft | 402 kts | 287° |
| 2026-05-04 12:38 | 38.37055 | 12.07195 | 29555 ft | 398 kts | 291° |
| 2026-05-04 12:38 | 38.38069 | 12.03907 | 30039 ft | 397 kts | 291° |
| 2026-05-04 12:38 | 38.39104 | 12.00640 | 30490 ft | 396 kts | 292° |
| 2026-05-04 12:39 | 38.40122 | 11.97438 | 30967 ft | 392 kts | 292° |
| 2026-05-04 12:39 | 38.41134 | 11.94220 | 31456 ft | 388 kts | 292° |
| 2026-05-04 12:39 | 38.42127 | 11.91005 | 31813 ft | 389 kts | 291° |
| 2026-05-04 12:39 | 38.43102 | 11.87798 | 31990 ft | 392 kts | 291° |
| 2026-05-04 12:40 | 38.43752 | 11.85639 | 32029 ft | 394 kts | 291° |
| 2026-05-04 12:40 | 38.46073 | 11.77859 | 32102 ft | 407 kts | 291° |
| 2026-05-04 12:41 | 38.48077 | 11.71131 | 32104 ft | 406 kts | 291° |
| 2026-05-04 12:41 | 38.49753 | 11.65522 | 32103 ft | 404 kts | 291° |
| 2026-05-04 12:42 | 38.51759 | 11.58793 | 32104 ft | 405 kts | 291° |
| 2026-05-04 12:42 | 38.53726 | 11.52087 | 32104 ft | 406 kts | 290° |
| 2026-05-04 12:43 | 38.55713 | 11.45305 | 32100 ft | 406 kts | 290° |
| 2026-05-04 12:43 | 38.57689 | 11.38575 | 32107 ft | 407 kts | 291° |
| 2026-05-04 12:44 | 38.59676 | 11.31829 | 32105 ft | 406 kts | 291° |
| 2026-05-04 12:44 | 38.61671 | 11.25070 | 32096 ft | 405 kts | 290° |
| 2026-05-04 12:45 | 38.63647 | 11.18348 | 32096 ft | 406 kts | 290° |
| 2026-05-04 12:45 | 38.65640 | 11.11553 | 32096 ft | 406 kts | 290° |
| 2026-05-04 12:46 | 38.67596 | 11.04793 | 32096 ft | 407 kts | 290° |
| 2026-05-04 12:46 | 38.69577 | 10.97985 | 32091 ft | 407 kts | 290° |
| 2026-05-04 12:47 | 38.71691 | 10.91273 | 32091 ft | 406 kts | 294° |
| 2026-05-04 12:47 | 38.74091 | 10.84741 | 32085 ft | 405 kts | 295° |
| 2026-05-04 12:48 | 38.76509 | 10.78246 | 32085 ft | 406 kts | 295° |
| 2026-05-04 12:48 | 38.78918 | 10.71675 | 32083 ft | 407 kts | 294° |
| 2026-05-04 12:49 | 38.81301 | 10.65092 | 32082 ft | 407 kts | 294° |
| 2026-05-04 12:49 | 38.83672 | 10.58527 | 32085 ft | 407 kts | 294° |
| 2026-05-04 12:50 | 38.86067 | 10.51908 | 32082 ft | 408 kts | 294° |
| 2026-05-04 12:50 | 38.88437 | 10.45347 | 32100 ft | 408 kts | 294° |
| 2026-05-04 12:51 | 38.90811 | 10.38706 | 32083 ft | 409 kts | 294° |
| 2026-05-04 12:51 | 38.93177 | 10.32050 | 32083 ft | 409 kts | 294° |
| 2026-05-04 12:52 | 38.95532 | 10.25438 | 32076 ft | 409 kts | 294° |
| 2026-05-04 12:52 | 38.97914 | 10.18769 | 32078 ft | 408 kts | 293° |
| 2026-05-04 12:53 | 39.00273 | 10.12175 | 32072 ft | 407 kts | 293° |
| 2026-05-04 12:53 | 39.02616 | 10.05585 | 32075 ft | 408 kts | 293° |
| 2026-05-04 12:54 | 39.04981 | 9.98934 | 32074 ft | 408 kts | 293° |
| 2026-05-04 12:54 | 39.07329 | 9.92295 | 32079 ft | 409 kts | 293° |
| 2026-05-04 12:55 | 39.09653 | 9.85660 | 32079 ft | 409 kts | 293° |
| 2026-05-04 12:55 | 39.12000 | 9.78980 | 32072 ft | 409 kts | 292° |
| 2026-05-04 12:56 | 39.14339 | 9.72316 | 32072 ft | 409 kts | 292° |
| 2026-05-04 12:56 | 39.16689 | 9.65609 | 32069 ft | 409 kts | 292° |
| 2026-05-04 12:57 | 39.19026 | 9.58945 | 32081 ft | 410 kts | 292° |
| 2026-05-04 12:57 | 39.21385 | 9.52218 | 32074 ft | 411 kts | 292° |
| 2026-05-04 12:58 | 39.23720 | 9.45534 | 32083 ft | 410 kts | 292° |
| 2026-05-04 12:58 | 39.26049 | 9.38804 | 32084 ft | 410 kts | 291° |
| 2026-05-04 12:59 | 39.28370 | 9.32049 | 32066 ft | 411 kts | 291° |
| 2026-05-04 12:59 | 39.30679 | 9.25333 | 32066 ft | 411 kts | 291° |
| 2026-05-04 13:00 | 39.33010 | 9.18616 | 32064 ft | 411 kts | 291° |
| 2026-05-04 13:00 | 39.35342 | 9.11859 | 32070 ft | 411 kts | 291° |
| 2026-05-04 13:01 | 39.37666 | 9.05130 | 32065 ft | 412 kts | 291° |
| 2026-05-04 13:01 | 39.40007 | 8.98329 | 32068 ft | 414 kts | 291° |
| 2026-05-04 13:02 | 39.42324 | 8.91505 | 32045 ft | 412 kts | 290° |
| 2026-05-04 13:02 | 39.44607 | 8.84759 | 32060 ft | 411 kts | 291° |
| 2026-05-04 13:03 | 39.46918 | 8.77947 | 32054 ft | 413 kts | 291° |
| 2026-05-04 13:03 | 39.49229 | 8.71155 | 32056 ft | 413 kts | 290° |
| 2026-05-04 13:04 | 39.51531 | 8.64383 | 32048 ft | 413 kts | 290° |
| 2026-05-04 13:04 | 39.53842 | 8.57563 | 32038 ft | 412 kts | 290° |
| 2026-05-04 13:05 | 39.56132 | 8.50782 | 32038 ft | 413 kts | 290° |
| 2026-05-04 13:05 | 39.58323 | 8.43910 | 32028 ft | 412 kts | 288° |
| 2026-05-04 13:06 | 39.60513 | 8.37022 | 32032 ft | 411 kts | 290° |
| 2026-05-04 13:06 | 39.62796 | 8.30274 | 32034 ft | 412 kts | 290° |
| 2026-05-04 13:07 | 39.65080 | 8.23668 | 32029 ft | 414 kts | 290° |
| 2026-05-04 13:07 | 39.67448 | 8.16820 | 32029 ft | 414 kts | 290° |
| 2026-05-04 13:08 | 39.69704 | 8.09995 | 32028 ft | 411 kts | 283° |
| 2026-05-04 13:08 | 39.70166 | 8.06363 | 32035 ft | 407 kts | 272° |
| 2026-05-04 13:08 | 39.70322 | 8.02664 | 32029 ft | 407 kts | 271° |
| 2026-05-04 13:09 | 39.70701 | 7.95360 | 32033 ft | 408 kts | 273° |
| 2026-05-04 13:09 | 39.71279 | 7.88016 | 32026 ft | 409 kts | 274° |
| 2026-05-04 13:10 | 39.71952 | 7.80707 | 32025 ft | 408 kts | 274° |
| 2026-05-04 13:10 | 39.72640 | 7.73425 | 32022 ft | 407 kts | 274° |
| 2026-05-04 13:11 | 39.73313 | 7.66140 | 32023 ft | 407 kts | 274° |
| 2026-05-04 13:11 | 39.73978 | 7.58807 | 32027 ft | 408 kts | 274° |
| 2026-05-04 13:12 | 39.74628 | 7.51492 | 32020 ft | 408 kts | 273° |
| 2026-05-04 13:12 | 39.75243 | 7.44158 | 32021 ft | 407 kts | 273° |
| 2026-05-04 13:13 | 39.75851 | 7.36907 | 32020 ft | 406 kts | 273° |
| 2026-05-04 13:13 | 39.76469 | 7.29611 | 32019 ft | 405 kts | 274° |
| 2026-05-04 13:14 | 39.77089 | 7.22325 | 32011 ft | 406 kts | 274° |
| 2026-05-04 13:14 | 39.77708 | 7.15043 | 32012 ft | 407 kts | 274° |
| 2026-05-04 13:15 | 39.78329 | 7.07728 | 32009 ft | 407 kts | 273° |
| 2026-05-04 13:15 | 39.78946 | 7.00392 | 32008 ft | 407 kts | 273° |
| 2026-05-04 13:16 | 39.79528 | 6.93094 | 32004 ft | 407 kts | 273° |
| 2026-05-04 13:16 | 39.80105 | 6.85750 | 32004 ft | 408 kts | 273° |
| 2026-05-04 13:17 | 39.80292 | 6.83393 | 32014 ft | 408 kts | 273° |
| 2026-05-04 13:17 | 39.80894 | 6.76055 | 32003 ft | 405 kts | 273° |
| 2026-05-04 13:18 | 39.81479 | 6.68813 | 31995 ft | 404 kts | 272° |
| 2026-05-04 13:18 | 39.82057 | 6.61536 | 31995 ft | 405 kts | 272° |
| 2026-05-04 13:19 | 39.82634 | 6.54233 | 31996 ft | 405 kts | 272° |
| 2026-05-04 13:19 | 39.83210 | 6.46932 | 31993 ft | 406 kts | 272° |
| 2026-05-04 13:20 | 39.83757 | 6.39666 | 32001 ft | 406 kts | 272° |
| 2026-05-04 13:20 | 39.84293 | 6.32348 | 31990 ft | 407 kts | 272° |
| 2026-05-04 13:21 | 39.84836 | 6.24996 | 31994 ft | 407 kts | 272° |
| 2026-05-04 13:21 | 39.85382 | 6.17705 | 31985 ft | 406 kts | 272° |
| 2026-05-04 13:22 | 39.85932 | 6.10383 | 31981 ft | 405 kts | 272° |
| 2026-05-04 13:22 | 39.86488 | 6.03082 | 31990 ft | 405 kts | 271° |
| 2026-05-04 13:23 | 39.87000 | 5.95810 | 31990 ft | 404 kts | 269° |
| 2026-05-04 13:23 | 39.87044 | 5.88530 | 31992 ft | 402 kts | 265° |
| 2026-05-04 13:24 | 39.86892 | 5.81244 | 31980 ft | 402 kts | 265° |
| 2026-05-04 13:24 | 39.86701 | 5.73961 | 31982 ft | 402 kts | 264° |
| 2026-05-04 13:25 | 39.86432 | 5.63108 | 31983 ft | 398 kts | 264° |
| 2026-05-04 13:25 | 39.86074 | 5.59568 | 31990 ft | 392 kts | 253° |
| 2026-05-04 13:25 | 39.85342 | 5.56145 | 31983 ft | 393 kts | 253° |
| 2026-05-04 13:26 | 39.84298 | 5.49185 | 31981 ft | 396 kts | 259° |
| 2026-05-04 13:26 | 39.83745 | 5.42020 | 31982 ft | 398 kts | 262° |
| 2026-05-04 13:27 | 39.83329 | 5.34859 | 31981 ft | 398 kts | 262° |
| 2026-05-04 13:27 | 39.82902 | 5.27668 | 31984 ft | 396 kts | 261° |
| 2026-05-04 13:28 | 39.82451 | 5.20544 | 31980 ft | 394 kts | 261° |
| 2026-05-04 13:28 | 39.81988 | 5.13438 | 31980 ft | 395 kts | 261° |
| 2026-05-04 13:29 | 39.81530 | 5.06392 | 31976 ft | 395 kts | 261° |
| 2026-05-04 13:29 | 39.81068 | 4.99238 | 31976 ft | 396 kts | 261° |
| 2026-05-04 13:30 | 39.80611 | 4.92095 | 31983 ft | 396 kts | 261° |
| 2026-05-04 13:30 | 39.80151 | 4.84984 | 31979 ft | 397 kts | 261° |
| 2026-05-04 13:31 | 39.79656 | 4.77838 | 31973 ft | 397 kts | 261° |
| 2026-05-04 13:31 | 39.79240 | 4.71918 | 31763 ft | 389 kts | 261° |
| 2026-05-04 13:32 | 39.78996 | 4.68429 | 31280 ft | 383 kts | 261° |
| 2026-05-04 13:32 | 39.78755 | 4.64985 | 30837 ft | 381 kts | 261° |
| 2026-05-04 13:32 | 39.78513 | 4.61541 | 30350 ft | 382 kts | 261° |
| 2026-05-04 13:32 | 39.78273 | 4.58116 | 29813 ft | 383 kts | 261° |
| 2026-05-04 13:33 | 39.78037 | 4.54671 | 29270 ft | 380 kts | 261° |
| 2026-05-04 13:33 | 39.77808 | 4.51271 | 28725 ft | 376 kts | 261° |
| 2026-05-04 13:33 | 39.77579 | 4.47939 | 28196 ft | 372 kts | 261° |
| 2026-05-04 13:33 | 39.77347 | 4.44586 | 27670 ft | 369 kts | 261° |
| 2026-05-04 13:34 | 39.77116 | 4.41271 | 27154 ft | 366 kts | 261° |
| 2026-05-04 13:34 | 39.76904 | 4.37982 | 26654 ft | 365 kts | 262° |
| 2026-05-04 13:34 | 39.76746 | 4.34720 | 26140 ft | 364 kts | 263° |
| 2026-05-04 13:34 | 39.76613 | 4.31435 | 25647 ft | 362 kts | 263° |
| 2026-05-04 13:35 | 39.76488 | 4.28164 | 25187 ft | 360 kts | 263° |
| 2026-05-04 13:35 | 39.76236 | 4.21720 | 24027 ft | 355 kts | 263° |
| 2026-05-04 13:35 | 39.76102 | 4.18521 | 23465 ft | 353 kts | 263° |
| 2026-05-04 13:36 | 39.75961 | 4.15353 | 22787 ft | 350 kts | 264° |
| 2026-05-04 13:36 | 39.75822 | 4.12204 | 22124 ft | 347 kts | 264° |
| 2026-05-04 13:36 | 39.75684 | 4.09079 | 21493 ft | 346 kts | 264° |
| 2026-05-04 13:36 | 39.75548 | 4.05995 | 20848 ft | 344 kts | 264° |
| 2026-05-04 13:37 | 39.75412 | 4.02894 | 20227 ft | 342 kts | 264° |
| 2026-05-04 13:37 | 39.75275 | 3.99802 | 19614 ft | 341 kts | 264° |
| 2026-05-04 13:37 | 39.75142 | 3.96763 | 19027 ft | 340 kts | 265° |
| 2026-05-04 13:37 | 39.75006 | 3.93685 | 18434 ft | 339 kts | 265° |
| 2026-05-04 13:38 | 39.74874 | 3.90633 | 17783 ft | 337 kts | 265° |
| 2026-05-04 13:38 | 39.74744 | 3.87592 | 17123 ft | 336 kts | 265° |
| 2026-05-04 13:38 | 39.74615 | 3.84605 | 16582 ft | 333 kts | 265° |
| 2026-05-04 13:38 | 39.74475 | 3.81580 | 16072 ft | 335 kts | 264° |
| 2026-05-04 13:39 | 39.74329 | 3.78551 | 15572 ft | 336 kts | 264° |
| 2026-05-04 13:39 | 39.74180 | 3.75525 | 15076 ft | 335 kts | 264° |
| 2026-05-04 13:39 | 39.74032 | 3.72540 | 14603 ft | 334 kts | 264° |
| 2026-05-04 13:39 | 39.73881 | 3.69514 | 14128 ft | 334 kts | 264° |
| 2026-05-04 13:40 | 39.73731 | 3.66499 | 13646 ft | 334 kts | 264° |
| 2026-05-04 13:40 | 39.73585 | 3.63498 | 13102 ft | 332 kts | 264° |
| 2026-05-04 13:40 | 39.73442 | 3.60522 | 12480 ft | 328 kts | 264° |
| 2026-05-04 13:40 | 39.73303 | 3.57612 | 11928 ft | 322 kts | 264° |
| 2026-05-04 13:41 | 39.73166 | 3.54734 | 11429 ft | 316 kts | 264° |
| 2026-05-04 13:41 | 39.73030 | 3.51914 | 10936 ft | 309 kts | 264° |
| 2026-05-04 13:41 | 39.72898 | 3.49161 | 10446 ft | 302 kts | 264° |
| 2026-05-04 13:42 | 39.72642 | 3.43837 | 9530 ft | 290 kts | 263° |
| 2026-05-04 13:42 | 39.72515 | 3.41254 | 9086 ft | 283 kts | 263° |
| 2026-05-04 13:42 | 39.72391 | 3.38733 | 8645 ft | 276 kts | 263° |
| 2026-05-04 13:42 | 39.72269 | 3.36260 | 8218 ft | 271 kts | 263° |
| 2026-05-04 13:43 | 39.72154 | 3.33830 | 7798 ft | 267 kts | 263° |
| 2026-05-04 13:43 | 39.72030 | 3.31436 | 7385 ft | 264 kts | 263° |
| 2026-05-04 13:43 | 39.71888 | 3.29067 | 7016 ft | 259 kts | 262° |
| 2026-05-04 13:43 | 39.71739 | 3.26771 | 6683 ft | 257 kts | 262° |
| 2026-05-04 13:44 | 39.71603 | 3.24465 | 6377 ft | 254 kts | 263° |
| 2026-05-04 13:44 | 39.71484 | 3.22195 | 6055 ft | 249 kts | 263° |
| 2026-05-04 13:44 | 39.71375 | 3.19973 | 5718 ft | 243 kts | 263° |
| 2026-05-04 13:44 | 39.71276 | 3.17812 | 5432 ft | 235 kts | 263° |
| 2026-05-04 13:45 | 39.71182 | 3.15725 | 5180 ft | 227 kts | 263° |
| 2026-05-04 13:45 | 39.71086 | 3.13696 | 4937 ft | 223 kts | 263° |
| 2026-05-04 13:45 | 39.70992 | 3.11700 | 4702 ft | 221 kts | 264° |
| 2026-05-04 13:45 | 39.70824 | 3.09768 | 4566 ft | 208 kts | 251° |
| 2026-05-04 13:46 | 39.70277 | 3.08114 | 4511 ft | 199 kts | 243° |
| 2026-05-04 13:46 | 39.69735 | 3.06518 | 4485 ft | 187 kts | 245° |
| 2026-05-04 13:46 | 39.69162 | 3.05061 | 4498 ft | 174 kts | 237° |
| 2026-05-04 13:46 | 39.68538 | 3.03751 | 4491 ft | 171 kts | 236° |
| 2026-05-04 13:47 | 39.67910 | 3.02442 | 4476 ft | 170 kts | 237° |
| 2026-05-04 13:47 | 39.67279 | 3.01109 | 4440 ft | 175 kts | 238° |
| 2026-05-04 13:47 | 39.66654 | 2.99765 | 4200 ft | 175 kts | 237° |
| 2026-05-04 13:47 | 39.66017 | 2.98421 | 3884 ft | 174 kts | 237° |
| 2026-05-04 13:48 | 39.65388 | 2.97088 | 3628 ft | 171 kts | 238° |
| 2026-05-04 13:48 | 39.64777 | 2.95783 | 3388 ft | 168 kts | 237° |
| 2026-05-04 13:48 | 39.64173 | 2.94491 | 3217 ft | 167 kts | 237° |
| 2026-05-04 13:48 | 39.63568 | 2.93217 | 3026 ft | 168 kts | 238° |
| 2026-05-04 13:49 | 39.62957 | 2.91920 | 2785 ft | 168 kts | 238° |
| 2026-05-04 13:49 | 39.62354 | 2.90623 | 2516 ft | 168 kts | 238° |
| 2026-05-04 13:49 | 39.61743 | 2.89351 | 2243 ft | 163 kts | 236° |
| 2026-05-04 13:49 | 39.61149 | 2.88099 | 2144 ft | 163 kts | 240° |
| 2026-05-04 13:50 | 39.60596 | 2.86849 | 1958 ft | 155 kts | 237° |
| 2026-05-04 13:50 | 39.60032 | 2.85698 | 1780 ft | 148 kts | 238° |
| 2026-05-04 13:50 | 39.59515 | 2.84587 | 1596 ft | 144 kts | 238° |
| 2026-05-04 13:50 | 39.59016 | 2.83531 | 1457 ft | 131 kts | 236° |
| 2026-05-04 13:51 | 39.58539 | 2.82541 | 1212 ft | 129 kts | 237° |
| 2026-05-04 13:51 | 39.58060 | 2.81531 | 1058 ft | 130 kts | 239° |
| 2026-05-04 13:51 | 39.57599 | 2.80518 | 911 ft | 129 kts | 237° |
| 2026-05-04 13:51 | 39.57109 | 2.79492 | 705 ft | 137 kts | 237° |
| 2026-05-04 13:52 | 39.56108 | 2.77383 | 302 ft | 136 kts | 236° |
| 2026-05-04 13:52 | 39.55629 | 2.76336 | 105 ft | 132 kts | 236° |
| 2026-05-04 13:52 | 39.55160 | 2.75372 | 39 ft | 111 kts | 240° |
| 2026-05-04 13:53 | 39.54875 | 2.74744 | 39 ft | 46 kts | 243° |
| 2026-05-04 13:53 | 39.54809 | 2.74469 | 39 ft | 20 kts | 263° |
| 2026-05-04 13:53 | 39.54804 | 2.74315 | 39 ft | 17 kts | 268° |
| 2026-05-04 13:54 | 39.54871 | 2.74089 | 39 ft | 9 kts | 330° |
| 2026-05-04 13:54 | 39.54928 | 2.74046 | 39 ft | 10 kts | 329° |
| 2026-05-04 13:54 | 39.55072 | 2.73932 | 39 ft | 14 kts | 328° |
| 2026-05-04 13:55 | 39.55130 | 2.73887 | 39 ft | 0 kts | 328° |
| 2026-05-04 13:55 | 39.55132 | 2.73885 | 39 ft | 1 kts | 328° |
| 2026-05-04 13:55 | 39.55150 | 2.73871 | 39 ft | 5 kts | 329° |
| 2026-05-04 13:56 | 39.55193 | 2.73837 | 39 ft | 9 kts | 329° |
| 2026-05-04 13:56 | 39.55258 | 2.73786 | 39 ft | 13 kts | 329° |
| 2026-05-04 13:56 | 39.55440 | 2.73643 | 39 ft | 16 kts | 329° |
| 2026-05-04 13:57 | 39.55491 | 2.73568 | 39 ft | 11 kts | 265° |
| 2026-05-04 13:57 | 39.55459 | 2.73478 | 39 ft | 11 kts | 239° |
| 2026-05-04 13:58 | 39.55300 | 2.73300 | 39 ft | 2 kts | 196° |
| 2026-05-04 13:58 | 39.55293 | 2.73298 | 39 ft | 0 kts | 196° |